createdAt,value
2023-03-20T00:00:46.688Z,43.82
2023-03-20T00:03:23.197Z,43.96
2023-03-20T00:05:54.006Z,43.98
2023-03-20T00:08:27.360Z,43.92
2023-03-20T00:10:59.676Z,44.01
2023-03-20T00:13:30.612Z,44.06
2023-03-20T00:16:01.694Z,44.29
2023-03-20T00:18:32.547Z,44.30
2023-03-20T00:21:03.376Z,44.38
2023-03-20T00:23:34.224Z,44.37
2023-03-20T00:26:05.061Z,44.47
2023-03-20T00:28:40.862Z,44.39
2023-03-20T00:31:16.987Z,44.49
2023-03-20T00:33:47.968Z,44.44
2023-03-20T00:36:18.710Z,44.50
2023-03-20T00:38:49.368Z,44.61
2023-03-20T00:41:24.695Z,44.70
2023-03-20T00:43:56.549Z,44.46
2023-03-20T00:46:27.383Z,44.61
2023-03-20T00:48:58.128Z,44.58
2023-03-20T00:51:28.738Z,44.65
2023-03-20T00:53:59.720Z,44.69
2023-03-20T00:56:32.343Z,44.76
2023-03-20T00:59:03.622Z,44.97
2023-03-20T01:01:34.371Z,44.89
2023-03-20T01:04:07.650Z,44.99
2023-03-20T01:06:38.472Z,44.95
2023-03-20T01:09:09.492Z,44.97
2023-03-20T01:11:40.447Z,45.38
2023-03-20T01:14:14.651Z,45.38
2023-03-20T01:16:45.789Z,45.64
2023-03-20T01:19:16.949Z,45.64
2023-03-20T01:21:47.902Z,45.76
2023-03-20T01:24:18.768Z,45.66
2023-03-20T01:26:51.806Z,45.87
2023-03-20T01:29:23.199Z,45.95
2023-03-20T01:31:54.178Z,45.93
2023-03-20T01:34:25.055Z,45.92
2023-03-20T01:36:56.247Z,45.94
2023-03-20T01:39:29.009Z,45.91
2023-03-20T01:41:59.833Z,45.99
2023-03-20T01:44:31.639Z,46.06
2023-03-20T01:47:02.929Z,46.20
2023-03-20T01:49:50.603Z,46.19
2023-03-20T01:52:21.552Z,46.37
2023-03-20T01:54:52.915Z,46.29
2023-03-20T01:57:23.866Z,46.20
2023-03-20T01:59:55.523Z,46.36
2023-03-20T02:02:27.138Z,46.33
2023-03-20T02:04:59.077Z,46.27
2023-03-20T02:07:29.840Z,46.39
2023-03-20T02:10:00.833Z,46.48
2023-03-20T02:12:31.828Z,46.42
2023-03-20T02:15:02.702Z,46.53
2023-03-20T02:17:33.482Z,46.55
2023-03-20T02:20:06.041Z,46.80
2023-03-20T02:22:49.189Z,46.87
2023-03-20T02:25:39.701Z,47.06
2023-03-20T02:28:25.499Z,46.79
2023-03-20T02:31:00.142Z,46.83
2023-03-20T02:33:47.062Z,47.01
2023-03-20T02:36:22.329Z,46.84
2023-03-20T02:38:56.326Z,46.82
2023-03-20T02:41:28.220Z,46.96
2023-03-20T02:44:02.275Z,46.82
2023-03-20T02:46:36.016Z,46.90
2023-03-20T02:49:10.188Z,46.89
2023-03-20T02:51:41.459Z,46.97
2023-03-20T02:54:14.763Z,46.79
2023-03-20T02:56:49.439Z,47.01
2023-03-20T02:59:21.461Z,47.01
2023-03-20T03:01:53.414Z,46.98
2023-03-20T03:04:25.233Z,47.08
2023-03-20T03:06:56.153Z,47.04
2023-03-20T03:09:27.468Z,47.22
2023-03-20T03:11:58.918Z,47.21
2023-03-20T03:14:30.782Z,47.31
2023-03-20T03:17:01.546Z,47.16
2023-03-20T03:19:32.114Z,47.28
2023-03-20T03:22:02.982Z,47.17
2023-03-20T03:24:40.873Z,47.31
2023-03-20T03:27:14.295Z,47.48
2023-03-20T03:29:45.036Z,47.47
2023-03-20T03:32:23.208Z,47.40
2023-03-20T03:34:53.982Z,47.50
2023-03-20T03:37:27.913Z,47.30
2023-03-20T03:40:00.184Z,47.63
2023-03-20T03:42:31.947Z,47.58
2023-03-20T03:45:05.012Z,47.67
2023-03-20T03:47:36.358Z,47.76
2023-03-20T03:50:07.976Z,47.77
2023-03-20T03:52:38.869Z,47.79
2023-03-20T03:55:10.272Z,47.82
2023-03-20T03:57:41.700Z,47.90
2023-03-20T04:00:13.269Z,47.95
2023-03-20T04:02:44.591Z,48.05
2023-03-20T04:05:15.487Z,48.09
2023-03-20T04:07:47.478Z,48.08
2023-03-20T04:10:18.426Z,48.17
2023-03-20T04:12:49.289Z,48.07
2023-03-20T04:15:20.420Z,48.13
2023-03-20T04:17:51.279Z,48.14
2023-03-20T04:20:22.043Z,48.10
2023-03-20T04:22:53.246Z,48.13
2023-03-20T04:25:24.396Z,48.21
2023-03-20T04:27:55.709Z,48.15
2023-03-20T04:30:26.521Z,48.16
2023-03-20T04:32:57.444Z,48.26
2023-03-20T04:35:28.462Z,48.08
2023-03-20T04:37:59.295Z,48.31
2023-03-20T04:40:31.650Z,48.31
2023-03-20T04:43:02.324Z,48.38
2023-03-20T04:45:33.172Z,48.34
2023-03-20T04:48:04.096Z,48.39
2023-03-20T04:50:35.002Z,48.40
2023-03-20T04:53:05.889Z,48.48
2023-03-20T04:55:36.791Z,48.41
2023-03-20T04:58:07.975Z,48.57
2023-03-20T05:00:39.017Z,48.67
2023-03-20T05:03:10.162Z,48.73
2023-03-20T05:05:41.321Z,48.74
2023-03-20T05:08:12.226Z,48.97
2023-03-20T05:10:42.822Z,48.73
2023-03-20T05:13:13.624Z,48.75
2023-03-20T05:15:44.464Z,48.78
2023-03-20T05:18:15.402Z,48.79
2023-03-20T05:20:46.532Z,48.80
2023-03-20T05:23:17.367Z,48.79
2023-03-20T05:25:48.002Z,48.83
2023-03-20T05:28:18.602Z,49.07
2023-03-20T05:30:49.217Z,48.89
2023-03-20T05:33:20.030Z,48.94
2023-03-20T05:35:51.352Z,49.08
2023-03-20T05:38:22.876Z,49.14
2023-03-20T05:40:53.773Z,49.17
2023-03-20T05:43:24.481Z,49.27
2023-03-20T05:45:55.395Z,49.14
2023-03-20T05:48:26.153Z,49.22
2023-03-20T05:50:56.960Z,49.19
2023-03-20T05:53:27.722Z,49.25
2023-03-20T05:55:58.486Z,49.30
2023-03-20T05:58:29.228Z,49.20
2023-03-20T06:01:00.191Z,49.14
2023-03-20T06:03:31.309Z,49.23
2023-03-20T06:06:02.260Z,49.31
2023-03-20T06:08:33.009Z,49.34
2023-03-20T06:11:04.325Z,49.36
2023-03-20T06:13:35.252Z,49.37
2023-03-20T06:16:06.454Z,49.47
2023-03-20T06:18:39.311Z,49.54
2023-03-20T06:21:11.933Z,49.55
2023-03-20T06:23:43.999Z,49.50
2023-03-20T06:26:15.814Z,49.67
2023-03-20T06:28:46.609Z,49.58
2023-03-20T06:31:17.453Z,49.57
2023-03-20T06:33:48.784Z,49.63
2023-03-20T06:36:19.562Z,49.66
2023-03-20T06:38:50.737Z,49.39
2023-03-20T06:41:33.791Z,49.44
2023-03-20T06:44:05.349Z,49.57
2023-03-20T06:46:36.323Z,49.59
2023-03-20T06:49:07.549Z,49.21
2023-03-20T06:51:39.206Z,49.30
2023-03-20T06:54:09.970Z,49.53
2023-03-20T06:56:40.829Z,49.59
2023-03-20T06:59:11.497Z,49.43
2023-03-20T07:01:42.500Z,49.51
2023-03-20T07:04:15.037Z,49.40
2023-03-20T07:06:47.019Z,49.40
2023-03-20T07:09:18.909Z,49.32
2023-03-20T07:11:50.009Z,49.31
2023-03-20T07:14:23.032Z,49.49
2023-03-20T07:16:55.130Z,49.69
2023-03-20T07:19:27.029Z,49.61
2023-03-20T07:21:59.839Z,49.64
2023-03-20T07:24:33.021Z,49.54
2023-03-20T07:27:04.257Z,49.35
2023-03-20T07:29:35.023Z,49.45
2023-03-20T07:32:06.880Z,49.28
2023-03-20T07:34:38.995Z,49.14
2023-03-20T07:37:10.590Z,49.23
2023-03-20T07:39:42.290Z,49.36
2023-03-20T07:42:14.326Z,49.37
2023-03-20T07:44:46.021Z,49.31
2023-03-20T07:47:17.292Z,49.09
2023-03-20T07:49:49.010Z,49.16
2023-03-20T07:52:20.062Z,49.13
2023-03-20T07:54:52.019Z,49.30
2023-03-20T07:57:23.061Z,49.21
2023-03-20T07:59:54.336Z,49.11
2023-03-20T08:09:27.252Z,48.88
2023-03-20T08:11:58.155Z,49.02
2023-03-20T08:14:29.223Z,48.97
2023-03-20T08:17:13.564Z,49.12
2023-03-20T08:19:45.457Z,48.88
2023-03-20T08:22:16.287Z,49.05
2023-03-20T08:24:47.390Z,48.98
2023-03-20T08:27:18.587Z,49.01
2023-03-20T08:29:49.412Z,49.02
2023-03-20T08:32:20.268Z,48.95
2023-03-20T08:34:51.151Z,48.93
2023-03-20T08:37:22.027Z,48.92
2023-03-20T08:39:52.757Z,48.89
2023-03-20T08:42:23.621Z,48.89
2023-03-20T08:44:54.503Z,48.92
2023-03-20T08:47:26.364Z,49.01
2023-03-20T08:49:57.163Z,48.93
2023-03-20T08:52:28.367Z,48.84
2023-03-20T08:54:59.144Z,48.66
2023-03-20T08:57:29.948Z,48.61
2023-03-20T09:00:01.673Z,48.58
2023-03-20T09:02:32.556Z,48.64
2023-03-20T09:05:03.517Z,48.75
2023-03-20T09:07:34.352Z,48.55
2023-03-20T09:10:05.761Z,48.51
2023-03-20T09:12:36.448Z,48.48
2023-03-20T09:15:08.298Z,48.36
2023-03-20T09:17:39.122Z,48.27
2023-03-20T09:20:10.878Z,48.12
2023-03-20T09:22:43.931Z,48.06
2023-03-20T09:25:14.930Z,48.11
2023-03-20T09:27:45.721Z,47.88
2023-03-20T09:30:17.011Z,47.73
2023-03-20T09:32:47.843Z,47.62
2023-03-20T09:35:19.031Z,47.43
2023-03-20T09:37:49.908Z,47.45
2023-03-20T09:40:24.199Z,47.19
2023-03-20T09:42:56.693Z,46.96
2023-03-20T09:45:29.988Z,46.74
2023-03-20T09:48:01.880Z,46.72
2023-03-20T09:50:35.145Z,46.62
2023-03-20T09:53:07.747Z,46.50
2023-03-20T09:55:39.672Z,46.33
2023-03-20T09:58:13.724Z,46.03
2023-03-20T10:00:47.088Z,45.95
2023-03-20T10:03:22.734Z,45.41
2023-03-20T10:05:56.115Z,44.90
2023-03-20T10:08:28.919Z,44.88
2023-03-20T10:11:02.925Z,44.56
2023-03-20T10:13:40.341Z,44.61
2023-03-20T10:16:14.369Z,44.67
2023-03-20T10:18:47.983Z,44.58
2023-03-20T10:21:19.694Z,43.94
2023-03-20T10:23:51.833Z,43.57
2023-03-20T10:26:23.305Z,43.42
2023-03-20T10:28:55.856Z,43.60
2023-03-20T10:31:33.430Z,43.34
2023-03-20T10:34:10.510Z,43.16
2023-03-20T10:36:44.798Z,42.81
2023-03-20T10:45:47.165Z,41.83
2023-03-20T10:48:21.804Z,41.63
2023-03-20T10:50:53.872Z,41.52
2023-03-20T10:53:30.696Z,41.59
2023-03-20T10:56:02.434Z,41.34
2023-03-20T10:58:33.537Z,40.99
2023-03-20T11:01:04.772Z,40.84
2023-03-20T11:03:39.638Z,40.41
2023-03-20T11:06:14.069Z,40.33
2023-03-20T11:08:45.566Z,39.91
2023-03-20T11:11:16.867Z,39.75
2023-03-20T11:13:49.606Z,39.29
2023-03-20T11:16:22.301Z,39.01
2023-03-20T11:18:54.226Z,38.75
2023-03-20T11:21:26.552Z,38.72
2023-03-20T11:23:57.377Z,38.78
2023-03-20T11:26:34.351Z,38.80
2023-03-20T11:29:05.227Z,38.74
2023-03-20T11:31:37.172Z,38.47
2023-03-20T11:34:12.889Z,38.29
2023-03-20T11:36:50.816Z,38.23
2023-03-20T11:39:28.042Z,37.99
2023-03-20T11:41:59.312Z,37.98
2023-03-20T11:44:30.530Z,37.91
2023-03-20T11:47:03.683Z,37.58
2023-03-20T11:49:35.066Z,37.39
2023-03-20T11:52:13.615Z,37.41
2023-03-20T11:54:48.881Z,36.75
2023-03-20T11:57:29.975Z,36.63
2023-03-20T12:00:00.813Z,37.08
2023-03-20T12:02:31.722Z,36.79
2023-03-20T12:05:02.691Z,36.73
2023-03-20T12:07:34.264Z,36.51
2023-03-20T12:10:06.430Z,36.63
2023-03-20T12:12:38.006Z,36.53
2023-03-20T12:15:11.911Z,36.53
2023-03-20T12:17:44.009Z,36.14
2023-03-20T12:20:18.308Z,36.03
2023-03-20T12:22:51.829Z,35.93
2023-03-20T12:25:23.873Z,35.98
2023-03-20T12:27:57.454Z,35.74
2023-03-20T12:30:29.871Z,35.69
2023-03-20T12:33:02.352Z,35.63
2023-03-20T12:35:33.725Z,35.59
2023-03-20T12:38:05.196Z,35.61
2023-03-20T12:40:38.448Z,35.12
2023-03-20T12:43:12.810Z,35.00
2023-03-20T12:45:46.483Z,34.94
2023-03-20T12:48:21.022Z,35.00
2023-03-20T12:50:52.749Z,34.72
2023-03-20T12:53:39.815Z,34.60
2023-03-20T12:56:15.631Z,34.33
2023-03-20T12:58:46.442Z,34.36
2023-03-20T13:01:19.355Z,34.21
2023-03-20T13:04:00.372Z,34.22
2023-03-20T13:06:36.024Z,34.05
2023-03-20T13:09:15.492Z,33.57
2023-03-20T13:11:47.500Z,33.55
2023-03-20T13:14:19.582Z,33.56
2023-03-20T13:16:52.795Z,33.32
2023-03-20T13:19:25.809Z,33.42
2023-03-20T13:21:57.849Z,33.27
2023-03-20T13:24:40.284Z,32.92
2023-03-20T13:27:14.685Z,32.95
2023-03-20T13:29:48.550Z,32.90
2023-03-20T13:32:22.075Z,32.96
2023-03-20T13:34:59.453Z,32.76
2023-03-20T13:37:33.559Z,32.76
2023-03-20T13:40:07.125Z,32.72
2023-03-20T13:42:38.872Z,32.59
2023-03-20T13:45:13.341Z,32.51
2023-03-20T13:47:44.041Z,32.51
2023-03-20T13:50:21.068Z,32.23
2023-03-20T13:52:53.855Z,32.19
2023-03-20T13:55:25.541Z,32.05
2023-03-20T13:57:59.684Z,31.99
2023-03-20T14:00:32.392Z,32.05
2023-03-20T14:03:07.184Z,31.75
2023-03-20T14:05:39.105Z,31.74
2023-03-20T14:08:26.115Z,31.61
2023-03-20T14:11:06.416Z,31.27
2023-03-20T14:13:37.195Z,31.48
2023-03-20T14:16:09.346Z,31.50
2023-03-20T14:18:40.063Z,31.55
2023-03-20T14:21:12.967Z,31.49
2023-03-20T14:23:47.254Z,31.59
2023-03-20T14:26:21.849Z,31.26
2023-03-20T14:28:56.964Z,31.21
2023-03-20T14:31:30.659Z,31.12
2023-03-20T14:34:02.557Z,31.17
2023-03-20T14:36:43.336Z,31.17
2023-03-20T14:39:15.714Z,30.92
2023-03-20T14:41:55.344Z,30.92
2023-03-20T14:44:28.446Z,31.07
2023-03-20T14:47:01.864Z,30.97
2023-03-20T14:49:38.057Z,31.05
2023-03-20T14:52:14.118Z,31.07
2023-03-20T14:54:45.407Z,31.01
2023-03-20T14:57:20.414Z,30.96
2023-03-20T14:59:51.343Z,31.11
2023-03-20T15:02:27.139Z,31.11
2023-03-20T15:04:58.545Z,31.18
2023-03-20T15:07:29.922Z,31.18
2023-03-20T15:10:03.177Z,31.18
2023-03-20T15:12:35.871Z,31.20
2023-03-20T15:15:08.230Z,31.17
2023-03-20T15:17:39.824Z,31.20
2023-03-20T15:20:15.264Z,31.08
2023-03-20T15:22:52.603Z,31.19
2023-03-20T15:25:24.726Z,31.20
2023-03-20T15:27:55.784Z,31.28
2023-03-20T15:30:26.768Z,31.24
2023-03-20T15:32:57.693Z,31.25
2023-03-20T15:35:28.620Z,31.37
2023-03-20T15:37:59.820Z,31.43
2023-03-20T15:40:47.457Z,31.44
2023-03-20T15:43:20.922Z,31.39
2023-03-20T15:46:02.772Z,31.60
2023-03-20T15:48:41.227Z,31.44
2023-03-20T15:51:12.336Z,31.64
2023-03-20T15:53:44.760Z,31.56
2023-03-20T15:56:19.240Z,31.65
2023-03-20T15:58:52.435Z,31.63
2023-03-20T16:01:24.221Z,31.96
2023-03-20T16:03:55.097Z,31.84
2023-03-20T16:06:26.736Z,31.87
2023-03-20T16:09:01.423Z,31.96
2023-03-20T16:11:39.684Z,31.89
2023-03-20T16:14:10.851Z,31.79
2023-03-20T16:16:41.511Z,31.92
2023-03-20T16:19:12.929Z,31.92
2023-03-20T16:21:44.773Z,32.01
2023-03-20T16:24:18.915Z,32.24
2023-03-20T16:26:51.334Z,32.13
2023-03-20T16:29:22.997Z,32.14
2023-03-20T16:31:56.376Z,32.08
2023-03-20T16:34:28.381Z,32.18
2023-03-20T16:36:59.743Z,32.38
2023-03-20T16:39:31.487Z,32.44
2023-03-20T16:42:12.998Z,32.32
2023-03-20T16:44:43.840Z,32.36
2023-03-20T16:47:22.398Z,32.54
2023-03-20T16:50:06.658Z,32.54
2023-03-20T16:52:38.952Z,32.53
2023-03-20T16:55:13.746Z,32.52
2023-03-20T16:57:45.767Z,32.65
2023-03-20T17:00:24.424Z,32.73
2023-03-20T17:02:59.669Z,32.71
2023-03-20T17:05:37.409Z,32.81
2023-03-20T17:08:12.440Z,32.94
2023-03-20T17:10:46.333Z,33.03
2023-03-20T17:13:17.232Z,33.08
2023-03-20T17:15:47.972Z,33.16
2023-03-20T17:18:18.801Z,33.33
2023-03-20T17:20:49.564Z,33.31
2023-03-20T17:23:21.941Z,33.36
2023-03-20T17:25:53.020Z,33.41
2023-03-20T17:28:25.070Z,33.46
2023-03-20T17:30:55.986Z,33.37
2023-03-20T17:33:28.524Z,33.52
2023-03-20T17:35:59.494Z,33.59
2023-03-20T17:38:31.696Z,33.62
2023-03-20T17:41:02.532Z,33.73
2023-03-20T17:43:33.377Z,33.78
2023-03-20T17:46:04.299Z,33.85
2023-03-20T17:48:35.106Z,33.92
2023-03-20T17:51:07.862Z,34.04
2023-03-20T17:53:39.051Z,34.06
2023-03-20T17:56:17.744Z,34.11
2023-03-20T17:58:48.565Z,34.28
2023-03-20T18:01:19.777Z,34.25
2023-03-20T18:03:50.830Z,34.33
2023-03-20T18:06:23.654Z,34.40
2023-03-20T18:08:54.511Z,34.42
2023-03-20T18:11:25.487Z,34.52
2023-03-20T18:13:56.270Z,34.51
2023-03-20T18:16:27.559Z,34.66
2023-03-20T18:19:00.539Z,34.82
2023-03-20T18:21:31.671Z,34.82
2023-03-20T18:24:02.642Z,34.92
2023-03-20T18:26:33.540Z,35.02
2023-03-20T18:29:04.400Z,34.97
2023-03-20T18:31:35.299Z,35.16
2023-03-20T18:34:06.163Z,35.16
2023-03-20T18:36:37.115Z,35.28
2023-03-20T18:39:08.047Z,35.44
2023-03-20T18:41:38.883Z,35.44
2023-03-20T18:44:09.800Z,35.45
2023-03-20T18:46:42.489Z,35.60
2023-03-20T18:49:16.103Z,35.55
2023-03-20T18:51:47.067Z,35.68
2023-03-20T18:54:17.911Z,35.86
2023-03-20T18:56:50.009Z,35.92
2023-03-20T18:59:20.779Z,35.94
2023-03-20T19:01:53.148Z,36.07
2023-03-20T19:04:24.533Z,36.06
2023-03-20T19:06:55.501Z,36.08
2023-03-20T19:09:26.426Z,36.15
2023-03-20T19:11:57.352Z,36.22
2023-03-20T19:14:28.117Z,36.38
2023-03-20T19:16:59.031Z,36.41
2023-03-20T19:19:30.139Z,36.62
2023-03-20T19:22:01.027Z,36.64
2023-03-20T19:24:31.893Z,36.57
2023-03-20T19:27:02.832Z,36.67
2023-03-20T19:29:33.555Z,36.68
2023-03-20T19:32:04.576Z,36.74
2023-03-20T19:37:26.584Z,36.83
2023-03-20T19:39:57.356Z,37.15
2023-03-20T19:42:53.036Z,37.06
2023-03-20T19:45:18.930Z,37.13
2023-03-20T19:47:49.954Z,37.19
2023-03-20T19:50:25.594Z,37.27
2023-03-20T19:52:57.777Z,37.30
2023-03-20T19:55:28.951Z,37.40
2023-03-20T19:58:00.788Z,37.51
2023-03-20T20:00:57.359Z,37.57
2023-03-20T20:03:24.134Z,37.74
2023-03-20T20:05:55.124Z,37.75
2023-03-20T20:08:42.530Z,37.83
2023-03-20T20:11:15.923Z,37.88
2023-03-20T20:16:38.018Z,38.16
2023-03-20T20:19:08.877Z,38.25
2023-03-20T20:24:30.814Z,38.39
2023-03-20T20:27:18.395Z,38.47
2023-03-20T20:29:50.844Z,38.48
2023-03-20T20:32:22.559Z,38.55
2023-03-20T20:38:33.759Z,38.67
2023-03-20T20:40:36.024Z,38.76
2023-03-20T20:43:10.273Z,38.80
2023-03-20T20:45:41.842Z,38.84
2023-03-20T20:48:12.827Z,38.96
2023-03-20T20:50:46.851Z,39.04
2023-03-20T20:53:17.739Z,39.12
2023-03-20T20:55:49.251Z,39.14
2023-03-20T20:58:20.422Z,39.24
2023-03-20T21:00:55.453Z,39.34
2023-03-20T21:03:29.049Z,39.40
2023-03-20T21:06:04.250Z,39.56
2023-03-20T21:08:36.785Z,39.67
2023-03-20T21:11:07.947Z,39.81
2023-03-20T21:13:38.719Z,40.05
2023-03-20T21:16:10.246Z,40.14
2023-03-20T21:18:41.152Z,40.37
2023-03-20T21:21:12.650Z,40.42
2023-03-20T21:23:43.512Z,40.47
2023-03-20T21:26:14.501Z,40.47
2023-03-20T21:28:45.935Z,40.61
2023-03-20T21:31:27.294Z,40.63
2023-03-20T21:33:59.529Z,40.78
2023-03-20T21:36:30.334Z,40.81
2023-03-20T21:39:08.267Z,40.98
2023-03-20T21:41:40.510Z,40.92
2023-03-20T21:44:17.254Z,41.06
2023-03-20T21:47:50.902Z,41.11
2023-03-20T21:53:12.012Z,41.21
2023-03-20T21:56:13.267Z,41.34
2023-03-20T22:10:35.403Z,41.59
2023-03-20T22:13:13.868Z,41.62
2023-03-20T22:16:16.786Z,41.67
2023-03-20T22:30:15.298Z,41.75
2023-03-20T22:38:59.004Z,41.96
2023-03-20T22:44:47.824Z,41.88
2023-03-20T22:46:45.947Z,41.89
2023-03-20T22:49:17.448Z,41.80
2023-03-20T22:52:05.052Z,41.76
2023-03-20T22:54:39.246Z,41.81
2023-03-20T22:57:10.104Z,41.77
2023-03-20T22:59:41.140Z,41.88
2023-03-20T23:02:12.092Z,41.94
2023-03-20T23:04:43.285Z,42.08
2023-03-20T23:07:14.162Z,42.02
2023-03-20T23:09:44.962Z,42.13
2023-03-20T23:12:15.797Z,42.13
2023-03-20T23:14:46.598Z,42.12
2023-03-20T23:17:17.585Z,42.30
2023-03-20T23:19:54.122Z,42.29
2023-03-20T23:22:30.053Z,42.41
2023-03-20T23:25:11.599Z,42.61
2023-03-20T23:27:45.690Z,42.67
2023-03-20T23:30:17.062Z,42.62
2023-03-20T23:32:47.805Z,42.72
2023-03-20T23:35:18.770Z,42.82
2023-03-20T23:37:49.499Z,42.82
2023-03-20T23:40:20.474Z,42.97
2023-03-20T23:42:51.252Z,43.04
2023-03-20T23:45:22.189Z,43.14
2023-03-20T23:47:53.008Z,43.13
2023-03-20T23:50:36.603Z,43.23
2023-03-20T23:53:20.283Z,43.33
2023-03-20T23:55:52.212Z,43.56
2023-03-20T23:58:23.276Z,43.64
